createdAt,value
2019-01-21T00:00:58.027Z,4.40
2019-01-21T00:01:58.013Z,4.10
2019-01-21T00:02:57.999Z,3.80
2019-01-21T00:03:57.985Z,3.20
2019-01-21T00:04:57.971Z,3.70
2019-01-21T00:05:57.961Z,4.40
2019-01-21T00:06:57.947Z,3.40
2019-01-21T00:07:57.932Z,3.10
2019-01-21T00:08:57.919Z,4.00
2019-01-21T00:09:57.906Z,2.90
2019-01-21T00:10:57.892Z,3.00
2019-01-21T00:11:57.878Z,3.40
2019-01-21T00:12:57.864Z,4.60
2019-01-21T00:13:57.851Z,4.60
2019-01-21T00:14:57.836Z,3.40
2019-01-21T00:15:57.824Z,3.60
2019-01-21T00:16:57.848Z,3.60
2019-01-21T00:17:57.796Z,4.00
2019-01-21T00:18:57.788Z,4.70
2019-01-21T00:19:57.771Z,4.10
2019-01-21T00:20:57.759Z,5.30
2019-01-21T00:21:57.745Z,2.70
2019-01-21T00:22:57.729Z,4.30
2019-01-21T00:23:57.717Z,4.50
2019-01-21T00:24:57.702Z,3.60
2019-01-21T00:25:57.689Z,3.60
2019-01-21T00:26:57.675Z,4.00
2019-01-21T00:27:57.662Z,3.80
2019-01-21T00:28:57.649Z,3.90
2019-01-21T00:29:57.635Z,4.20
2019-01-21T00:30:57.620Z,4.00
2019-01-21T00:31:57.610Z,3.60
2019-01-21T00:32:57.594Z,4.90
2019-01-21T00:33:57.583Z,3.60
2019-01-21T00:34:57.567Z,3.50
2019-01-21T00:35:57.554Z,3.60
2019-01-21T00:37:03.464Z,2.40
2019-01-21T00:37:57.527Z,3.40
2019-01-21T00:38:57.514Z,3.10
2019-01-21T00:39:57.499Z,4.30
2019-01-21T00:40:57.486Z,3.60
2019-01-21T00:41:57.475Z,2.90
2019-01-21T00:42:57.459Z,4.00
2019-01-21T00:43:57.446Z,4.40
2019-01-21T00:44:57.433Z,3.50
2019-01-21T00:45:57.419Z,3.00
2019-01-21T00:46:57.404Z,3.40
2019-01-21T00:47:57.392Z,3.80
2019-01-21T00:48:57.379Z,3.60
2019-01-21T00:49:57.364Z,3.40
2019-01-21T00:50:57.350Z,3.90
2019-01-21T00:51:57.338Z,4.10
2019-01-21T00:52:57.325Z,3.80
2019-01-21T00:53:57.311Z,3.00
2019-01-21T00:54:57.298Z,4.40
2019-01-21T00:55:57.283Z,4.40
2019-01-21T00:56:57.271Z,3.60
2019-01-21T00:57:57.256Z,3.60
2019-01-21T00:58:57.242Z,3.80
2019-01-21T00:59:57.231Z,3.20
2019-01-21T01:00:57.215Z,3.50
2019-01-21T01:01:57.203Z,4.00
2019-01-21T01:02:57.187Z,3.80
2019-01-21T01:03:57.174Z,3.50
2019-01-21T01:04:57.261Z,3.40
2019-01-21T01:05:57.148Z,3.80
2019-01-21T01:06:57.136Z,3.10
2019-01-21T01:07:57.120Z,3.80
2019-01-21T01:08:57.106Z,4.40
2019-01-21T01:09:57.092Z,3.30
2019-01-21T01:10:57.079Z,3.60
2019-01-21T01:11:57.067Z,4.40
2019-01-21T01:12:57.051Z,3.20
2019-01-21T01:13:57.040Z,3.10
2019-01-21T01:14:57.023Z,3.80
2019-01-21T01:15:57.011Z,3.00
2019-01-21T01:16:56.996Z,2.70
2019-01-21T01:17:56.982Z,3.30
2019-01-21T01:18:56.970Z,3.20
2019-01-21T01:19:56.956Z,3.90
2019-01-21T01:20:56.943Z,4.10
2019-01-21T01:21:56.930Z,3.70
2019-01-21T01:22:56.915Z,4.00
2019-01-21T01:23:56.900Z,3.40
2019-01-21T01:24:56.888Z,3.80
2019-01-21T01:25:56.976Z,2.90
2019-01-21T01:26:56.860Z,3.30
2019-01-21T01:27:56.847Z,3.90
2019-01-21T01:28:56.834Z,4.40
2019-01-21T01:29:56.818Z,3.30
2019-01-21T01:30:56.805Z,3.40
2019-01-21T01:31:56.791Z,3.60
2019-01-21T01:32:56.777Z,3.40
2019-01-21T01:33:56.764Z,3.10
2019-01-21T01:34:56.749Z,2.60
2019-01-21T01:35:56.736Z,2.90
2019-01-21T01:36:56.724Z,3.60
2019-01-21T01:37:56.710Z,3.90
2019-01-21T01:38:56.701Z,2.50
2019-01-21T01:39:56.683Z,3.20
2019-01-21T01:40:56.668Z,3.20
2019-01-21T01:41:56.657Z,3.10
2019-01-21T01:42:56.641Z,3.00
2019-01-21T01:43:56.627Z,3.60
2019-01-21T01:44:56.613Z,3.30
2019-01-21T01:45:56.601Z,3.40
2019-01-21T01:46:56.584Z,3.40
2019-01-21T01:47:56.571Z,4.00
2019-01-21T01:48:56.562Z,3.40
2019-01-21T01:49:56.545Z,3.50
2019-01-21T01:50:56.531Z,3.80
2019-01-21T01:51:56.617Z,3.60
2019-01-21T01:52:56.504Z,3.00
2019-01-21T01:53:56.489Z,3.60
2019-01-21T01:54:56.477Z,3.30
2019-01-21T01:55:56.463Z,2.90
2019-01-21T01:56:56.449Z,2.80
2019-01-21T01:57:56.436Z,2.80
2019-01-21T01:58:56.422Z,3.50
2019-01-21T01:59:56.409Z,3.80
2019-01-21T02:00:56.396Z,4.80
2019-01-21T02:01:56.380Z,3.50
2019-01-21T02:02:56.368Z,3.10
2019-01-21T02:03:56.354Z,3.40
2019-01-21T02:04:56.340Z,3.10
2019-01-21T02:05:56.326Z,2.70
2019-01-21T02:06:56.312Z,2.90
2019-01-21T02:07:56.298Z,4.10
2019-01-21T02:08:56.284Z,3.10
2019-01-21T02:09:56.270Z,3.00
2019-01-21T02:10:56.257Z,2.90
2019-01-21T02:11:56.244Z,3.80
2019-01-21T02:12:56.237Z,2.50
2019-01-21T02:13:56.216Z,3.30
2019-01-21T02:14:56.205Z,3.10
2019-01-21T02:15:56.188Z,3.10
2019-01-21T02:16:56.175Z,3.10
2019-01-21T02:17:56.161Z,3.60
2019-01-21T02:18:56.149Z,2.90
2019-01-21T02:19:56.134Z,2.80
2019-01-21T02:20:56.122Z,3.40
2019-01-21T02:21:56.123Z,4.00
2019-01-21T02:22:56.093Z,3.00
2019-01-21T02:23:56.082Z,3.60
2019-01-21T02:24:56.065Z,3.30
2019-01-21T02:25:56.052Z,2.90
2019-01-21T02:26:56.038Z,3.00
2019-01-21T02:27:56.023Z,3.40
2019-01-21T02:28:56.010Z,3.70
2019-01-21T02:29:55.999Z,3.50
2019-01-21T02:30:55.982Z,3.60
2019-01-21T02:31:55.968Z,3.10
2019-01-21T02:32:55.955Z,2.50
2019-01-21T02:33:55.944Z,4.00
2019-01-21T02:34:55.927Z,2.60
2019-01-21T02:35:55.913Z,2.90
2019-01-21T02:36:55.902Z,3.40
2019-01-21T02:37:55.975Z,3.30
2019-01-21T02:38:55.882Z,2.70
2019-01-21T02:39:55.862Z,3.10
2019-01-21T02:40:55.846Z,3.90
2019-01-21T02:41:55.833Z,3.20
2019-01-21T02:42:55.819Z,2.90
2019-01-21T02:43:55.804Z,3.20
2019-01-21T02:44:55.791Z,3.80
2019-01-21T02:45:55.777Z,3.60
2019-01-21T02:46:55.763Z,3.00
2019-01-21T02:47:59.995Z,3.90
2019-01-21T02:48:55.739Z,4.10
2019-01-21T02:49:55.722Z,2.90
2019-01-21T02:50:55.719Z,3.60
2019-01-21T02:51:55.693Z,4.10
2019-01-21T02:52:55.680Z,3.60
2019-01-21T02:53:55.667Z,2.70
2019-01-21T02:54:55.651Z,3.00
2019-01-21T02:55:55.638Z,4.00
2019-01-21T02:56:55.626Z,3.70
2019-01-21T02:57:55.614Z,3.60
2019-01-21T02:58:55.597Z,3.30
2019-01-21T02:59:55.583Z,3.10
2019-01-21T03:00:55.569Z,4.20
2019-01-21T03:01:55.558Z,3.40
2019-01-21T03:02:55.540Z,3.00
2019-01-21T03:03:55.528Z,3.60
2019-01-21T03:04:55.513Z,3.10
2019-01-21T03:05:55.500Z,3.60
2019-01-21T03:06:55.486Z,4.20
2019-01-21T03:07:55.472Z,3.70
2019-01-21T03:08:55.461Z,4.20
2019-01-21T03:09:55.444Z,4.00
2019-01-21T03:10:55.501Z,3.50
2019-01-21T03:11:55.417Z,2.90
2019-01-21T03:12:55.402Z,3.00
2019-01-21T03:13:55.392Z,4.00
2019-01-21T03:14:55.375Z,4.00
2019-01-21T03:15:55.362Z,4.10
2019-01-21T03:16:55.346Z,4.00
2019-01-21T03:17:55.334Z,3.00
2019-01-21T03:18:55.320Z,3.50
2019-01-21T03:19:55.305Z,4.80
2019-01-21T03:20:55.292Z,3.60
2019-01-21T03:21:55.279Z,3.00
2019-01-21T03:22:55.264Z,3.80
2019-01-21T03:23:55.252Z,3.30
2019-01-21T03:24:55.237Z,4.10
2019-01-21T03:25:55.223Z,4.80
2019-01-21T03:26:55.207Z,4.10
2019-01-21T03:27:55.197Z,3.00
2019-01-21T03:28:55.180Z,3.80
2019-01-21T03:29:55.167Z,3.80
2019-01-21T03:30:55.154Z,3.80
2019-01-21T03:31:55.139Z,4.30
2019-01-21T03:32:55.126Z,3.90
2019-01-21T03:33:55.117Z,3.00
2019-01-21T03:34:55.101Z,4.10
2019-01-21T03:35:55.085Z,4.00
2019-01-21T03:36:55.073Z,2.80
2019-01-21T03:37:55.061Z,3.30
2019-01-21T03:38:55.044Z,3.50
2019-01-21T03:39:55.029Z,4.60
2019-01-21T03:40:55.017Z,3.70
2019-01-21T03:41:55.002Z,3.50
2019-01-21T03:42:54.985Z,4.60
2019-01-21T03:43:54.972Z,3.60
2019-01-21T03:44:54.960Z,4.10
2019-01-21T03:45:54.948Z,4.00
2019-01-21T03:46:54.929Z,3.80
2019-01-21T03:47:54.917Z,4.90
2019-01-21T03:48:54.904Z,3.70
2019-01-21T03:49:54.888Z,5.00
2019-01-21T03:50:54.874Z,4.70
2019-01-21T03:51:54.861Z,4.60
2019-01-21T03:52:54.845Z,4.10
2019-01-21T03:53:54.833Z,3.90
2019-01-21T03:54:54.817Z,4.20
2019-01-21T03:55:54.804Z,4.50
2019-01-21T03:56:54.790Z,4.20
2019-01-21T03:57:54.777Z,3.20
2019-01-21T03:58:54.760Z,4.00
2019-01-21T03:59:54.747Z,3.60
2019-01-21T04:00:54.733Z,4.40
2019-01-21T04:01:54.719Z,4.60
2019-01-21T04:02:54.705Z,3.60
2019-01-21T04:03:54.694Z,3.60
2019-01-21T04:04:54.679Z,3.80
2019-01-21T04:05:54.669Z,4.40
2019-01-21T04:06:54.647Z,4.70
2019-01-21T04:07:54.645Z,2.50
2019-01-21T04:08:54.622Z,4.10
2019-01-21T04:09:54.607Z,3.70
2019-01-21T04:10:54.591Z,3.40
2019-01-21T04:11:54.579Z,3.50
2019-01-21T04:12:54.566Z,3.80
2019-01-21T04:13:54.552Z,4.30
2019-01-21T04:14:54.537Z,4.00
2019-01-21T04:15:54.522Z,4.40
2019-01-21T04:16:54.509Z,3.70
2019-01-21T04:17:54.495Z,3.80
2019-01-21T04:18:54.483Z,4.20
2019-01-21T04:19:54.464Z,4.00
2019-01-21T04:20:54.452Z,3.60
2019-01-21T04:21:54.439Z,4.60
2019-01-21T04:22:54.426Z,4.10
2019-01-21T04:23:54.409Z,4.60
2019-01-21T04:24:54.397Z,4.10
2019-01-21T04:25:54.572Z,4.10
2019-01-21T04:26:54.519Z,3.60
2019-01-21T04:27:54.353Z,3.80
2019-01-21T04:28:54.339Z,3.60
2019-01-21T04:29:54.324Z,3.90
2019-01-21T04:30:54.311Z,4.50
2019-01-21T04:31:54.296Z,4.50
2019-01-21T04:32:54.284Z,4.60
2019-01-21T04:33:54.271Z,3.80
2019-01-21T04:34:54.253Z,3.90
2019-01-21T04:35:54.241Z,3.50
2019-01-21T04:36:54.227Z,3.00
2019-01-21T04:37:54.212Z,5.10
2019-01-21T04:38:54.197Z,4.20
2019-01-21T04:39:54.184Z,4.10
2019-01-21T04:40:54.169Z,3.70
2019-01-21T04:41:54.156Z,4.60
2019-01-21T04:42:54.141Z,3.70
2019-01-21T04:43:54.126Z,5.00
2019-01-21T04:44:54.113Z,4.10
2019-01-21T04:45:54.101Z,4.60
2019-01-21T04:46:54.088Z,3.80
2019-01-21T04:47:54.069Z,4.80
2019-01-21T04:48:54.055Z,4.40
2019-01-21T04:49:54.040Z,4.00
2019-01-21T04:50:54.030Z,4.20
2019-01-21T04:51:54.013Z,4.50
2019-01-21T04:52:54.000Z,4.00
2019-01-21T04:53:53.984Z,4.70
2019-01-21T04:54:53.970Z,4.90
2019-01-21T04:55:53.956Z,5.00
2019-01-21T04:56:53.941Z,4.70
2019-01-21T04:57:53.928Z,5.70
2019-01-21T04:58:53.918Z,3.40
2019-01-21T04:59:53.899Z,4.30
2019-01-21T05:00:53.885Z,4.10
2019-01-21T05:01:53.870Z,5.50
2019-01-21T05:02:53.856Z,4.60
2019-01-21T05:03:53.841Z,4.60
2019-01-21T05:04:53.833Z,4.40
2019-01-21T05:05:53.814Z,4.00
2019-01-21T05:06:53.798Z,4.80
2019-01-21T05:07:53.787Z,4.60
2019-01-21T05:08:53.771Z,5.10
2019-01-21T05:09:53.756Z,4.00
2019-01-21T05:10:53.741Z,5.00
2019-01-21T05:11:53.727Z,4.00
2019-01-21T05:12:53.714Z,5.90
2019-01-21T05:13:53.699Z,5.40
2019-01-21T05:14:53.684Z,4.50
2019-01-21T05:15:53.690Z,5.30
2019-01-21T05:16:53.658Z,5.00
2019-01-21T05:17:53.645Z,5.10
2019-01-21T05:18:53.633Z,5.30
2019-01-21T05:19:53.615Z,5.20
2019-01-21T05:20:53.600Z,5.30
2019-01-21T05:21:53.586Z,5.00
2019-01-21T05:22:53.570Z,4.90
2019-01-21T05:23:53.555Z,5.10
2019-01-21T05:24:53.543Z,4.40
2019-01-21T05:25:53.529Z,3.70
2019-01-21T05:26:53.515Z,4.70
2019-01-21T05:27:53.500Z,5.10
2019-01-21T05:28:53.483Z,5.60
2019-01-21T05:29:53.474Z,5.20
2019-01-21T05:30:53.458Z,4.60
2019-01-21T05:31:53.442Z,4.70
2019-01-21T05:32:53.430Z,5.80
2019-01-21T05:33:53.419Z,4.70
2019-01-21T05:34:53.400Z,4.90
2019-01-21T05:35:53.436Z,4.30
2019-01-21T05:36:53.373Z,5.20
2019-01-21T05:37:53.361Z,5.30
2019-01-21T05:38:53.343Z,4.40
2019-01-21T05:39:53.334Z,4.70
2019-01-21T05:40:53.313Z,5.00
2019-01-21T05:41:53.299Z,4.10
2019-01-21T05:42:53.284Z,5.50
2019-01-21T05:43:53.270Z,4.60
2019-01-21T05:44:53.256Z,4.80
2019-01-21T05:45:53.242Z,5.20
2019-01-21T05:46:53.225Z,5.90
2019-01-21T05:47:53.213Z,4.70
2019-01-21T05:48:53.200Z,4.90
2019-01-21T05:49:53.185Z,5.90
2019-01-21T05:50:53.171Z,5.40
2019-01-21T05:51:53.157Z,6.10
2019-01-21T05:52:53.143Z,5.30
2019-01-21T05:53:53.129Z,5.50
2019-01-21T05:54:53.117Z,4.10
2019-01-21T05:55:53.100Z,5.00
2019-01-21T05:56:53.085Z,5.30
2019-01-21T05:57:53.074Z,5.20
2019-01-21T05:58:53.055Z,5.60
2019-01-21T05:59:53.043Z,5.30
2019-01-21T06:00:53.036Z,5.60
2019-01-21T06:01:53.014Z,4.60
2019-01-21T06:02:52.997Z,5.10
2019-01-21T06:03:52.986Z,4.80
2019-01-21T06:04:52.971Z,4.70
2019-01-21T06:05:52.955Z,5.40
2019-01-21T06:06:52.940Z,5.70
2019-01-21T06:07:52.927Z,4.50
2019-01-21T06:08:52.912Z,4.50
2019-01-21T06:09:52.897Z,5.10
2019-01-21T06:10:52.884Z,4.50
2019-01-21T06:11:52.869Z,4.60
2019-01-21T06:12:52.856Z,5.10
2019-01-21T06:13:52.842Z,5.30
2019-01-21T06:14:52.825Z,6.00
2019-01-21T06:15:52.814Z,5.50
2019-01-21T06:16:52.798Z,5.00
2019-01-21T06:17:52.785Z,5.20
2019-01-21T06:18:57.226Z,6.10
2019-01-21T06:19:52.754Z,6.60
2019-01-21T06:20:52.739Z,5.10
2019-01-21T06:21:52.726Z,5.00
2019-01-21T06:22:52.710Z,4.70
2019-01-21T06:23:52.697Z,4.00
2019-01-21T06:24:52.681Z,4.80
2019-01-21T06:25:52.667Z,4.40
2019-01-21T06:26:52.653Z,4.70
2019-01-21T06:27:52.639Z,4.80
2019-01-21T06:28:52.624Z,6.10
2019-01-21T06:29:52.610Z,6.60
2019-01-21T06:30:52.596Z,6.00
2019-01-21T06:31:52.580Z,6.50
2019-01-21T06:32:52.567Z,5.60
2019-01-21T06:33:52.552Z,6.10
2019-01-21T06:34:52.538Z,5.90
2019-01-21T06:35:52.524Z,5.60
2019-01-21T06:36:52.509Z,5.30
2019-01-21T06:37:52.494Z,4.30
2019-01-21T06:38:52.480Z,4.40
2019-01-21T06:39:52.467Z,6.60
2019-01-21T06:40:52.451Z,5.60
2019-01-21T06:41:52.437Z,6.70
2019-01-21T06:42:52.423Z,6.00
2019-01-21T06:43:52.407Z,7.50
2019-01-21T06:44:52.395Z,8.30
2019-01-21T06:45:52.378Z,6.80
2019-01-21T06:46:52.364Z,5.80
2019-01-21T06:47:52.350Z,5.80
2019-01-21T06:48:52.344Z,5.70
2019-01-21T06:49:52.322Z,5.30
2019-01-21T06:50:52.307Z,5.40
2019-01-21T06:51:52.292Z,5.50
2019-01-21T06:52:52.278Z,5.40
2019-01-21T06:53:52.264Z,5.20
2019-01-21T06:54:52.248Z,4.50
2019-01-21T06:55:52.234Z,4.70
2019-01-21T06:56:52.220Z,5.20
2019-01-21T06:57:52.205Z,7.40
2019-01-21T06:58:52.190Z,6.20
2019-01-21T06:59:52.177Z,6.40
2019-01-21T07:00:52.160Z,7.50
2019-01-21T07:01:52.148Z,7.60
2019-01-21T07:02:52.131Z,7.60
2019-01-21T07:03:52.118Z,8.80
2019-01-21T07:04:52.121Z,9.10
2019-01-21T07:05:52.089Z,6.40
2019-01-21T07:07:52.060Z,6.20
2019-01-21T07:08:52.044Z,7.00
2019-01-21T07:09:52.029Z,6.70
2019-01-21T07:10:52.015Z,6.40
2019-01-21T07:11:52.001Z,5.60
2019-01-21T07:12:51.987Z,5.80
2019-01-21T07:13:51.973Z,6.40
2019-01-21T07:14:51.957Z,5.20
2019-01-21T07:15:51.943Z,5.50
2019-01-21T07:16:51.929Z,6.10
2019-01-21T07:17:51.914Z,6.70
2019-01-21T07:18:51.899Z,6.50
2019-01-21T07:19:51.885Z,6.10
2019-01-21T07:20:51.870Z,5.50
2019-01-21T07:21:51.856Z,6.10
2019-01-21T07:22:51.841Z,6.20
2019-01-21T07:23:53.081Z,5.40
2019-01-21T07:24:51.812Z,5.90
2019-01-21T07:25:51.798Z,6.20
2019-01-21T07:26:51.783Z,5.20
2019-01-21T07:27:51.769Z,5.60
2019-01-21T07:28:51.755Z,5.20
2019-01-21T07:29:51.741Z,5.70
2019-01-21T07:30:51.725Z,5.90
2019-01-21T07:31:51.711Z,5.30
2019-01-21T07:32:51.696Z,5.60
2019-01-21T07:33:51.681Z,5.70
2019-01-21T07:34:51.668Z,6.20
2019-01-21T07:35:51.651Z,5.90
2019-01-21T07:36:51.639Z,6.50
2019-01-21T07:37:51.626Z,6.40
2019-01-21T07:38:51.610Z,5.70
2019-01-21T07:39:51.596Z,5.70
2019-01-21T07:40:51.581Z,6.60
2019-01-21T07:41:51.566Z,5.50
2019-01-21T07:42:51.551Z,6.00
2019-01-21T07:43:51.538Z,6.80
2019-01-21T07:44:51.523Z,7.20
2019-01-21T07:45:51.510Z,5.50
2019-01-21T07:46:51.497Z,6.60
2019-01-21T07:47:51.480Z,7.10
2019-01-21T07:48:51.467Z,6.20
2019-01-21T07:49:51.453Z,5.70
2019-01-21T07:50:51.437Z,6.50
2019-01-21T07:51:51.423Z,5.70
2019-01-21T07:52:51.413Z,5.30
2019-01-21T07:53:51.394Z,5.40
2019-01-21T07:54:51.379Z,7.40
2019-01-21T07:55:51.364Z,4.80
2019-01-21T07:56:51.352Z,5.30
2019-01-21T07:57:51.336Z,5.70
2019-01-21T07:58:51.323Z,5.30
2019-01-21T07:59:51.308Z,5.20
2019-01-21T08:00:51.295Z,6.00
2019-01-21T08:01:51.280Z,6.20
2019-01-21T08:02:51.266Z,5.30
2019-01-21T08:03:51.250Z,5.20
2019-01-21T08:04:51.237Z,6.00
2019-01-21T08:05:51.224Z,6.40
2019-01-21T08:06:51.207Z,7.70
2019-01-21T08:07:51.193Z,5.60
2019-01-21T08:08:51.180Z,4.90
2019-01-21T08:09:51.165Z,6.00
2019-01-21T08:10:51.151Z,5.90
2019-01-21T08:11:51.138Z,5.80
2019-01-21T08:12:51.123Z,5.40
2019-01-21T08:13:51.108Z,7.40
2019-01-21T08:14:51.094Z,6.60
2019-01-21T08:15:51.084Z,6.20
2019-01-21T08:16:51.064Z,5.30
2019-01-21T08:17:51.053Z,6.10
2019-01-21T08:18:51.039Z,5.70
2019-01-21T08:19:51.025Z,5.80
2019-01-21T08:20:51.009Z,4.90
2019-01-21T08:21:50.996Z,6.30
2019-01-21T08:22:50.980Z,5.30
2019-01-21T08:23:50.968Z,5.50
2019-01-21T08:24:50.953Z,5.70
2019-01-21T08:25:50.939Z,6.60
2019-01-21T08:26:50.926Z,6.20
2019-01-21T08:27:50.910Z,6.90
2019-01-21T08:28:50.898Z,7.40
2019-01-21T08:29:50.883Z,5.20
2019-01-21T08:30:50.869Z,6.30
2019-01-21T08:31:50.856Z,5.80
2019-01-21T08:32:50.842Z,7.30
2019-01-21T08:33:50.828Z,5.90
2019-01-21T08:34:50.813Z,5.50
2019-01-21T08:35:50.800Z,5.50
2019-01-21T08:36:50.785Z,5.50
2019-01-21T08:37:50.772Z,5.20
2019-01-21T08:38:50.761Z,6.00
2019-01-21T08:39:50.744Z,5.60
2019-01-21T08:40:50.729Z,5.90
2019-01-21T08:41:50.716Z,5.20
2019-01-21T08:42:50.704Z,6.80
2019-01-21T08:43:50.688Z,7.20
2019-01-21T08:44:50.712Z,7.30
2019-01-21T08:45:50.661Z,6.60
2019-01-21T08:46:50.648Z,6.80
2019-01-21T08:47:50.634Z,5.80
2019-01-21T08:48:50.619Z,5.60
2019-01-21T08:49:50.607Z,7.10
2019-01-21T08:50:50.593Z,7.20
2019-01-21T08:51:50.578Z,6.60
2019-01-21T08:52:50.565Z,6.80
2019-01-21T08:53:50.553Z,8.70
2019-01-21T08:54:50.536Z,6.80
2019-01-21T08:55:50.524Z,8.30
2019-01-21T08:56:50.510Z,7.40
2019-01-21T08:57:50.498Z,7.40
2019-01-21T08:58:50.483Z,8.30
2019-01-21T08:59:50.470Z,7.80
2019-01-21T09:00:50.457Z,7.30
2019-01-21T09:01:50.442Z,8.30
2019-01-21T09:02:50.429Z,7.70
2019-01-21T09:03:50.415Z,8.20
2019-01-21T09:04:50.401Z,8.50
2019-01-21T09:05:50.389Z,7.90
2019-01-21T09:06:50.375Z,8.30
2019-01-21T09:07:50.362Z,8.30
2019-01-21T09:08:50.349Z,7.90
2019-01-21T09:09:50.336Z,8.90
2019-01-21T09:10:50.321Z,8.10
2019-01-21T09:11:50.307Z,7.80
2019-01-21T09:12:50.296Z,8.20
2019-01-21T09:13:50.284Z,8.70
2019-01-21T09:14:50.267Z,8.40
2019-01-21T09:15:50.257Z,8.00
2019-01-21T09:16:50.242Z,8.40
2019-01-21T09:17:50.231Z,8.00
2019-01-21T09:18:50.217Z,8.90
2019-01-21T09:19:50.237Z,9.70
2019-01-21T09:20:50.190Z,8.00
2019-01-21T09:21:50.177Z,9.30
2019-01-21T09:22:50.164Z,9.40
2019-01-21T09:23:50.150Z,8.50
2019-01-21T09:24:50.139Z,10.30
2019-01-21T09:25:50.125Z,8.40
2019-01-21T09:26:50.112Z,9.20
2019-01-21T09:27:50.100Z,9.70
2019-01-21T09:28:50.087Z,9.90
2019-01-21T09:29:50.075Z,9.40
2019-01-21T09:30:50.059Z,9.30
2019-01-21T09:31:50.049Z,8.90
2019-01-21T09:32:50.036Z,8.50
2019-01-21T09:33:50.022Z,10.50
2019-01-21T09:34:50.009Z,9.70
2019-01-21T09:35:49.998Z,10.90
2019-01-21T09:36:49.983Z,9.20
2019-01-21T09:37:49.973Z,11.00
2019-01-21T09:38:49.958Z,10.00
2019-01-21T09:39:49.946Z,9.70
2019-01-21T09:40:49.933Z,11.50
2019-01-21T09:41:49.922Z,10.70
2019-01-21T09:42:49.907Z,10.70
2019-01-21T09:43:49.897Z,10.10
2019-01-21T09:44:49.882Z,11.40
2019-01-21T09:45:49.871Z,11.80
2019-01-21T09:46:49.858Z,13.10
2019-01-21T09:47:49.845Z,12.20
2019-01-21T09:48:49.834Z,11.80
2019-01-21T09:49:49.822Z,10.40
2019-01-21T09:50:49.808Z,11.40
2019-01-21T09:51:49.797Z,11.00
2019-01-21T09:52:49.784Z,11.30
2019-01-21T09:53:49.773Z,9.90
2019-01-21T09:54:49.760Z,10.10
2019-01-21T09:55:49.748Z,10.80
2019-01-21T09:56:49.736Z,10.90
2019-01-21T09:57:49.759Z,10.00
2019-01-21T09:58:49.716Z,10.20
2019-01-21T09:59:49.699Z,10.60
2019-01-21T10:00:49.687Z,11.50
2019-01-21T10:01:49.677Z,9.70
2019-01-21T10:02:49.664Z,10.60
2019-01-21T10:03:49.650Z,10.10
2019-01-21T10:04:49.639Z,10.20
2019-01-21T10:05:49.628Z,10.90
2019-01-21T10:06:49.615Z,10.60
2019-01-21T10:07:49.603Z,10.90
2019-01-21T10:08:49.592Z,10.20
2019-01-21T10:09:55.187Z,10.80
2019-01-21T10:10:49.566Z,9.80
2019-01-21T10:11:49.557Z,10.80
2019-01-21T10:12:49.545Z,10.30
2019-01-21T10:13:49.533Z,9.80
2019-01-21T10:14:49.519Z,10.20
2019-01-21T10:15:49.509Z,11.70
2019-01-21T10:16:49.497Z,10.40
2019-01-21T10:17:49.484Z,10.90
2019-01-21T10:18:49.472Z,11.00
2019-01-21T10:19:50.506Z,10.80
2019-01-21T10:20:49.839Z,11.00
2019-01-21T10:21:49.438Z,10.50
2019-01-21T10:22:49.427Z,11.50
2019-01-21T10:23:49.415Z,11.10
2019-01-21T10:24:49.402Z,10.20
2019-01-21T10:25:49.392Z,12.60
2019-01-21T10:26:49.381Z,9.60
2019-01-21T10:27:49.513Z,10.50
2019-01-21T10:28:49.359Z,11.20
2019-01-21T10:29:49.346Z,10.40
2019-01-21T10:30:49.335Z,9.80
2019-01-21T10:31:49.323Z,10.80
2019-01-21T10:32:49.311Z,10.50
2019-01-21T10:33:49.302Z,10.80
2019-01-21T10:34:49.288Z,11.00
2019-01-21T10:35:49.279Z,10.90
2019-01-21T10:36:49.266Z,11.30
2019-01-21T10:37:49.260Z,12.80
2019-01-21T10:38:49.244Z,10.90
2019-01-21T10:39:49.232Z,13.10
2019-01-21T10:40:49.222Z,12.30
2019-01-21T10:41:49.212Z,12.90
2019-01-21T10:42:49.227Z,13.00
2019-01-21T10:43:49.195Z,12.70
2019-01-21T10:44:49.184Z,12.50
2019-01-21T10:45:49.176Z,12.90
2019-01-21T10:46:49.166Z,12.00
2019-01-21T10:47:49.158Z,12.10
2019-01-21T10:48:49.149Z,11.40
2019-01-21T10:49:49.143Z,12.10
2019-01-21T10:50:49.135Z,12.10
2019-01-21T10:51:49.126Z,12.90
2019-01-21T10:52:49.120Z,12.00
2019-01-21T10:53:49.113Z,12.00
2019-01-21T10:54:49.106Z,10.80
2019-01-21T10:55:49.101Z,11.40
2019-01-21T10:56:49.093Z,11.00
2019-01-21T10:57:49.085Z,10.70
2019-01-21T10:58:49.079Z,11.60
2019-01-21T10:59:49.075Z,10.40
2019-01-21T11:00:49.068Z,10.90
2019-01-21T11:01:49.062Z,11.60
2019-01-21T11:02:49.054Z,10.60
2019-01-21T11:03:49.050Z,11.30
2019-01-21T11:04:49.043Z,12.10
2019-01-21T11:05:49.036Z,10.90
2019-01-21T11:06:49.031Z,11.10
2019-01-21T11:07:49.025Z,10.80
2019-01-21T11:08:49.018Z,11.30
2019-01-21T11:09:49.013Z,10.40
2019-01-21T11:10:49.006Z,11.60
2019-01-21T11:11:53.969Z,11.40
2019-01-21T11:12:48.996Z,11.30
2019-01-21T11:13:48.990Z,10.60
2019-01-21T11:14:48.982Z,10.80
2019-01-21T11:15:48.976Z,12.50
2019-01-21T11:16:48.971Z,12.90
2019-01-21T11:17:48.965Z,13.80
2019-01-21T11:18:48.958Z,12.70
2019-01-21T11:19:48.952Z,13.50
2019-01-21T11:20:48.945Z,13.30
2019-01-21T11:21:48.939Z,13.60
2019-01-21T11:22:48.937Z,12.60
2019-01-21T11:23:48.927Z,12.60
2019-01-21T11:24:48.919Z,12.20
2019-01-21T11:25:48.915Z,13.50
2019-01-21T11:26:48.907Z,12.70
2019-01-21T11:27:48.900Z,13.10
2019-01-21T11:28:48.900Z,13.80
2019-01-21T11:29:48.887Z,13.00
2019-01-21T11:30:48.881Z,13.10
2019-01-21T11:31:48.874Z,12.30
2019-01-21T11:32:48.869Z,12.90
2019-01-21T11:33:48.861Z,12.60
2019-01-21T11:34:48.853Z,12.10
2019-01-21T11:35:48.847Z,13.40
2019-01-21T11:36:48.840Z,13.10
2019-01-21T11:37:48.836Z,11.90
2019-01-21T11:38:48.824Z,13.10
2019-01-21T11:39:48.818Z,12.60
2019-01-21T11:40:48.809Z,12.80
2019-01-21T11:41:48.804Z,13.30
2019-01-21T11:42:48.795Z,13.20
2019-01-21T11:43:48.787Z,13.10
2019-01-21T11:44:48.781Z,13.60
2019-01-21T11:45:48.776Z,13.80
2019-01-21T11:46:48.764Z,12.80
2019-01-21T11:47:48.757Z,12.90
2019-01-21T11:48:48.749Z,13.20
2019-01-21T11:49:48.747Z,13.90
2019-01-21T11:50:48.734Z,12.00
2019-01-21T11:51:48.725Z,13.10
2019-01-21T11:52:48.718Z,11.90
2019-01-21T11:53:48.712Z,11.90
2019-01-21T11:54:48.700Z,12.30
2019-01-21T11:55:48.693Z,11.60
2019-01-21T11:56:48.685Z,13.00
2019-01-21T11:57:48.678Z,11.60
2019-01-21T11:58:48.671Z,12.50
2019-01-21T11:59:48.661Z,12.20
2019-01-21T12:00:48.656Z,12.70
2019-01-21T12:01:48.646Z,11.70
2019-01-21T12:02:48.639Z,12.00
2019-01-21T12:03:48.628Z,12.30
2019-01-21T12:04:48.620Z,11.70
2019-01-21T12:05:48.611Z,11.60
2019-01-21T12:06:48.607Z,12.30
2019-01-21T12:07:48.596Z,12.90
2019-01-21T12:08:48.589Z,12.50
2019-01-21T12:09:48.581Z,11.70
2019-01-21T12:10:48.571Z,11.60
2019-01-21T12:11:48.564Z,12.30
2019-01-21T12:12:48.555Z,11.70
2019-01-21T12:13:48.548Z,12.70
2019-01-21T12:14:48.537Z,12.40
2019-01-21T12:15:48.529Z,10.10
2019-01-21T12:16:48.523Z,9.90
2019-01-21T12:17:48.515Z,9.90
2019-01-21T12:18:48.506Z,9.70
2019-01-21T12:19:48.496Z,9.90
2019-01-21T12:20:48.486Z,8.70
2019-01-21T12:21:48.479Z,9.30
2019-01-21T12:22:48.469Z,9.80
2019-01-21T12:23:48.462Z,9.40
2019-01-21T12:24:48.453Z,12.20
2019-01-21T12:25:48.444Z,11.60
2019-01-21T12:26:48.435Z,10.20
2019-01-21T12:27:48.427Z,10.50
2019-01-21T12:28:48.417Z,10.10
2019-01-21T12:29:48.408Z,10.20
2019-01-21T12:30:48.401Z,9.20
2019-01-21T12:31:48.391Z,9.30
2019-01-21T12:32:48.382Z,9.90
2019-01-21T12:33:48.377Z,10.70
2019-01-21T12:34:48.364Z,10.20
2019-01-21T12:35:48.355Z,9.60
2019-01-21T12:36:48.346Z,11.40
2019-01-21T12:37:48.336Z,9.20
2019-01-21T12:38:48.326Z,9.80
2019-01-21T12:39:48.317Z,9.80
2019-01-21T12:40:48.309Z,10.30
2019-01-21T12:41:48.300Z,9.30
2019-01-21T12:42:48.292Z,9.20
2019-01-21T12:43:48.282Z,9.60
2019-01-21T12:44:48.273Z,10.00
2019-01-21T12:45:48.263Z,9.70
2019-01-21T12:46:48.254Z,10.00
2019-01-21T12:47:48.248Z,11.20
2019-01-21T12:48:48.250Z,8.80
2019-01-21T12:49:48.229Z,8.60
2019-01-21T12:50:48.218Z,8.30
2019-01-21T12:51:48.209Z,9.40
2019-01-21T12:52:48.199Z,9.60
2019-01-21T12:53:48.192Z,9.60
2019-01-21T12:54:48.180Z,9.70
2019-01-21T12:55:48.173Z,9.20
2019-01-21T12:56:48.166Z,8.50
2019-01-21T12:57:48.155Z,9.60
2019-01-21T12:58:48.146Z,10.30
2019-01-21T12:59:48.135Z,9.00
2019-01-21T13:00:48.125Z,9.70
2019-01-21T13:01:48.118Z,8.60
2019-01-21T13:02:48.108Z,8.90
2019-01-21T13:03:48.108Z,9.20
2019-01-21T13:04:48.091Z,10.60
2019-01-21T13:05:48.082Z,9.90
2019-01-21T13:06:48.070Z,9.20
2019-01-21T13:07:48.063Z,9.80
2019-01-21T13:08:48.054Z,9.80
2019-01-21T13:09:48.044Z,9.50
2019-01-21T13:10:48.035Z,9.10
2019-01-21T13:11:48.027Z,8.60
2019-01-21T13:12:48.015Z,8.60
2019-01-21T13:13:48.010Z,8.30